Time;durP1;ratioP1;P1;durP2;ratioP2;P2;SDS_P1;SDS_P2;PMS_P1;PMS_P2;Temp;Humidity;BMP_temperature;BMP_pressure;BME280_temperature;BME280_humidity;BME280_pressure;Samples;Min_cycle;Max_cycle;Signal;HPM_P1;HPM_P2
2023/02/22 00:02:11;;;;;;;6.20;2.72;;;3.60;99.90;;;;;;4953638;28;20058;-74
2023/02/22 00:04:39;;;;;;;2.58;2.38;;;3.70;99.90;;;;;;4951732;28;20396;-74
2023/02/22 00:07:07;;;;;;;2.45;2.25;;;3.70;99.90;;;;;;4956517;28;20057;-74
2023/02/22 00:09:34;;;;;;;2.88;2.67;;;3.80;99.90;;;;;;4952114;28;20059;-74
2023/02/22 00:12:02;;;;;;;3.72;2.92;;;3.90;99.90;;;;;;4953976;28;20049;-74
2023/02/22 00:14:30;;;;;;;3.08;2.55;;;3.90;99.90;;;;;;4955219;28;20043;-74
2023/02/22 00:16:58;;;;;;;3.17;2.38;;;4.00;99.90;;;;;;4954614;28;20053;-74
2023/02/22 00:19:29;;;;;;;12.50;4.22;;;4.10;99.90;;;;;;4953286;28;20043;-74
2023/02/22 00:21:57;;;;;;;2.40;2.20;;;4.10;99.90;;;;;;4935188;29;20062;-74
2023/02/22 00:24:25;;;;;;;4.80;3.45;;;4.40;99.90;;;;;;4956506;28;20051;-74
2023/02/22 00:26:54;;;;;;;2.22;2.13;;;4.70;99.90;;;;;;4954093;28;20522;-74
2023/02/22 00:29:23;;;;;;;3.25;2.53;;;4.70;99.90;;;;;;4953497;28;20051;-74
2023/02/22 00:31:51;;;;;;;3.20;2.55;;;4.70;99.90;;;;;;4916413;29;20058;-74
2023/02/22 00:34:19;;;;;;;2.90;2.70;;;4.50;99.90;;;;;;4939075;28;20135;-74
2023/02/22 00:36:47;;;;;;;9.10;3.53;;;3.90;99.90;;;;;;4934532;28;20055;-74
2023/02/22 00:39:15;;;;;;;3.40;3.20;;;3.40;99.90;;;;;;4935560;29;20516;-74
2023/02/22 00:41:43;;;;;;;3.17;2.42;;;3.10;99.90;;;;;;4935718;29;20066;-74
2023/02/22 00:44:10;;;;;;;3.20;2.58;;;2.90;99.90;;;;;;4931935;28;20415;-74
2023/02/22 00:46:39;;;;;;;2.17;2.08;;;2.80;99.90;;;;;;4937175;29;20054;-74
2023/02/22 00:49:06;;;;;;;2.97;2.72;;;2.80;99.90;;;;;;4942340;29;20046;-74
2023/02/22 00:51:34;;;;;;;6.80;2.70;;;2.80;99.90;;;;;;4952302;28;20055;-74
2023/02/22 00:54:02;;;;;;;3.33;3.13;;;2.80;99.90;;;;;;4938464;28;20527;-74
2023/02/22 00:56:33;;;;;;;6.88;3.80;;;3.00;99.90;;;;;;4953077;28;20047;-75
2023/02/22 00:59:00;;;;;;;4.10;2.73;;;3.10;99.90;;;;;;4948128;28;20058;-74
2023/02/22 01:01:29;;;;;;;2.22;2.13;;;3.20;99.90;;;;;;4952681;28;20287;-74
2023/02/22 01:03:57;;;;;;;2.80;2.60;;;3.40;99.90;;;;;;4924911;28;20051;-74
2023/02/22 01:06:25;;;;;;;3.45;3.10;;;2.90;99.90;;;;;;4952748;28;20039;-74
2023/02/22 01:08:53;;;;;;;4.10;3.65;;;2.70;99.90;;;;;;4947364;29;20385;-74
2023/02/22 01:11:24;;;;;;;3.42;3.08;;;2.70;99.90;;;;;;4953139;28;20055;-74
2023/02/22 01:13:55;;;;;;;3.83;3.47;;;2.80;99.90;;;;;;4954567;28;20860;-74
2023/02/22 01:16:23;;;;;;;;;;;2.80;99.90;;;;;;4939071;29;20062;-74
2023/02/22 01:18:51;;;;;;;5.32;3.80;;;2.80;99.90;;;;;;4952157;28;19934;-74
2023/02/22 01:21:18;;;;;;;8.13;2.88;;;2.70;99.90;;;;;;4948474;28;20051;-74
2023/02/22 01:23:46;;;;;;;3.50;2.58;;;2.60;99.90;;;;;;4938056;28;20043;-74
2023/02/22 01:26:17;;;;;;;7.40;3.72;;;2.70;99.90;;;;;;4952237;28;20412;-74
2023/02/22 01:28:45;;;;;;;5.35;3.33;;;2.90;99.90;;;;;;4947445;28;20678;-74
2023/02/22 01:31:13;;;;;;;3.10;2.55;;;3.10;99.90;;;;;;4914590;28;20060;-74
2023/02/22 01:33:43;;;;;;;3.08;2.78;;;3.20;99.90;;;;;;4936393;28;20748;-74
2023/02/22 01:36:11;;;;;;;3.20;2.90;;;3.20;99.90;;;;;;4943542;28;20055;-74
2023/02/22 01:38:38;;;;;;;4.80;3.45;;;3.20;99.90;;;;;;4951335;28;20051;-74
2023/02/22 01:41:06;;;;;;;3.22;2.78;;;3.10;99.90;;;;;;4954883;28;20058;-74
2023/02/22 01:43:36;;;;;;;2.67;2.47;;;2.90;99.90;;;;;;4954316;28;20066;-74
2023/02/22 01:46:07;;;;;;;3.03;2.50;;;2.40;99.90;;;;;;4935219;29;20456;-74
2023/02/22 01:48:48;;;;;;;3.40;3.17;;;2.10;99.90;;;;;;4934877;29;20043;-74
2023/02/22 01:51:20;;;;;;;3.28;2.75;;;2.00;99.90;;;;;;4935324;28;20061;-73
2023/02/22 01:54:03;;;;;;;4.57;2.85;;;2.10;99.90;;;;;;4934246;29;20491;-74
2023/02/22 01:56:35;;;;;;;2.92;2.70;;;2.10;99.90;;;;;;4952440;28;20043;-74
2023/02/22 01:59:07;;;;;;;3.42;3.13;;;2.20;99.90;;;;;;4956211;28;20047;-74
2023/02/22 02:01:37;;;;;;;2.70;2.50;;;2.30;99.90;;;;;;4951955;28;20043;-74
2023/02/22 02:04:10;;;;;;;26.15;4.93;;;2.30;99.90;;;;;;4934407;29;20491;-74
2023/02/22 02:06:41;;;;;;;4.53;3.13;;;2.40;99.90;;;;;;4954459;28;20054;-74
2023/02/22 02:09:45;;;;;;;3.72;2.47;;;2.40;99.90;;;;;;4952630;28;20504;-74
2023/02/22 02:12:16;;;;;;;3.22;3.03;;;2.30;99.90;;;;;;4926342;28;20062;-73
2023/02/22 02:14:43;;;;;;;5.82;3.92;;;2.00;99.90;;;;;;4955882;28;20061;-74
2023/02/22 02:17:14;;;;;;;3.15;2.35;;;2.10;99.90;;;;;;4934366;28;20510;-74
2023/02/22 02:20:00;;;;;;;3.67;2.95;;;2.10;99.90;;;;;;4951473;28;20515;-74
2023/02/22 02:22:33;;;;;;;6.05;4.93;;;2.10;99.90;;;;;;4945704;28;20047;-74
2023/02/22 02:25:10;;;;;;;4.07;3.33;;;2.00;99.90;;;;;;4944458;28;20058;-74
2023/02/22 02:28:12;;;;;;;5.82;4.40;;;1.70;99.90;;;;;;4927104;29;20052;-74
2023/02/22 02:30:57;;;;;;;6.53;3.13;;;1.60;99.90;;;;;;4953068;28;20047;-74
2023/02/22 02:33:47;;;;;;;7.90;5.38;;;1.70;99.90;;;;;;4948392;28;20039;-74
2023/02/22 02:36:25;;;;;;;6.60;3.60;;;1.80;99.90;;;;;;4959496;28;20059;-74
2023/02/22 02:39:00;;;;;;;9.75;4.30;;;2.00;99.90;;;;;;4953460;28;20058;-74
2023/02/22 02:41:38;;;;;;;5.13;4.20;;;1.90;99.90;;;;;;4954733;28;20420;-74
2023/02/22 02:44:21;;;;;;;6.30;4.35;;;1.80;99.90;;;;;;4949640;28;20455;-74
2023/02/22 02:47:08;;;;;;;6.32;4.68;;;1.90;99.90;;;;;;4940990;29;20047;-74
2023/02/22 02:49:44;;;;;;;9.25;4.05;;;2.10;99.90;;;;;;4955284;28;20404;-75
2023/02/22 02:52:14;;;;;;;4.47;4.05;;;2.20;99.90;;;;;;4953341;28;20050;-74
2023/02/22 02:54:44;;;;;;;6.03;4.18;;;2.30;99.90;;;;;;4936549;29;20055;-74
2023/02/22 02:57:13;;;;;;;;;;;2.20;99.90;;;;;;4955677;28;20039;-74
2023/02/22 02:59:42;;;;;;;4.57;4.05;;;2.20;99.90;;;;;;4954822;28;19922;-74
2023/02/22 03:02:42;;;;;;;7.05;5.40;;;2.20;99.90;;;;;;4937347;28;20067;-74
2023/02/22 03:05:31;;;;;;;8.32;5.95;;;2.30;99.90;;;;;;4934473;29;20062;-74
2023/02/22 03:08:23;;;;;;;5.72;5.15;;;2.70;99.90;;;;;;4953513;28;20047;-74
2023/02/22 03:11:02;;;;;;;6.65;4.85;;;2.90;99.90;;;;;;4927199;29;20055;-74
2023/02/22 03:13:39;;;;;;;9.27;5.90;;;3.10;99.90;;;;;;4939771;28;20470;-74
2023/02/22 03:16:43;;;;;;;7.00;5.13;;;3.40;99.90;;;;;;4938432;29;20624;-74
2023/02/22 03:19:21;;;;;;;6.57;4.72;;;3.40;99.90;;;;;;4916247;29;20047;-74
2023/02/22 03:22:02;;;;;;;5.90;4.85;;;3.20;99.90;;;;;;4953628;28;20062;-74
2023/02/22 03:24:31;;;;;;;;;;;2.60;99.90;;;;;;4943978;29;20055;-74
2023/02/22 03:27:10;;;;;;;10.32;5.63;;;2.40;99.90;;;;;;4937242;28;20183;-74
2023/02/22 03:29:44;;;;;;;7.72;5.82;;;2.40;99.90;;;;;;4935150;28;20423;-74
2023/02/22 03:32:21;;;;;;;5.00;4.00;;;2.70;99.90;;;;;;4932076;29;20058;-75
2023/02/22 03:34:55;;;;;;;7.28;5.55;;;2.90;99.90;;;;;;4936880;28;20062;-74
2023/02/22 03:37:32;;;;;;;6.18;5.30;;;3.00;99.90;;;;;;4939172;28;20043;-74
2023/02/22 03:40:12;;;;;;;7.78;7.18;;;3.00;99.90;;;;;;4952871;28;20132;-74
2023/02/22 03:42:51;;;;;;;5.32;4.78;;;2.90;99.90;;;;;;4936989;29;20051;-74
2023/02/22 03:45:23;;;;;;;4.55;3.78;;;2.40;99.90;;;;;;4933406;28;20543;-74
2023/02/22 03:48:03;;;;;;;6.47;5.50;;;2.40;99.90;;;;;;4936831;29;20051;-74
2023/02/22 03:50:34;;;;;;;7.78;6.70;;;2.60;99.90;;;;;;4937156;29;20047;-80
2023/02/22 03:53:04;;;;;;;4.88;4.07;;;2.70;99.90;;;;;;4927042;28;20050;-79
2023/02/22 03:55:34;;;;;;;6.57;4.55;;;2.70;99.90;;;;;;4936239;29;20050;-79
2023/02/22 03:58:08;;;;;;;5.22;4.10;;;2.80;99.90;;;;;;4931814;29;20411;-80
2023/02/22 04:00:35;;;;;;;4.95;4.55;;;2.90;99.90;;;;;;4938671;28;20051;-79
2023/02/22 04:03:04;;;;;;;4.80;4.40;;;3.00;99.90;;;;;;4951384;28;20054;-79
2023/02/22 04:05:31;;;;;;;4.72;4.22;;;3.20;99.90;;;;;;4952475;28;20043;-79
2023/02/22 04:07:59;;;;;;;4.57;3.45;;;3.40;99.90;;;;;;4921437;29;20058;-79
2023/02/22 04:10:27;;;;;;;6.88;5.43;;;3.50;99.90;;;;;;4955730;28;20531;-79
2023/02/22 04:12:54;;;;;;;6.22;4.72;;;3.60;99.90;;;;;;4955787;28;20058;-79
2023/02/22 04:15:23;;;;;;;8.38;5.25;;;3.40;99.90;;;;;;4936356;29;20047;-79
2023/02/22 04:17:55;;;;;;;6.57;4.30;;;3.10;99.90;;;;;;4936234;28;20054;-79
2023/02/22 04:20:24;;;;;;;4.05;3.67;;;2.60;99.90;;;;;;4950845;28;20062;-79
2023/02/22 04:22:55;;;;;;;7.10;4.10;;;2.30;99.90;;;;;;4901532;29;20055;-79
2023/02/22 04:25:24;;;;;;;5.25;4.80;;;2.10;99.90;;;;;;4953164;28;20047;-79
2023/02/22 04:27:52;;;;;;;6.05;4.68;;;2.10;99.90;;;;;;4920651;29;20062;-79
2023/02/22 04:30:33;;;;;;;4.63;4.20;;;2.10;99.90;;;;;;4953224;28;20046;-80
2023/02/22 04:33:03;;;;;;;5.28;4.38;;;2.10;99.90;;;;;;4935065;29;20050;-79
2023/02/22 04:35:31;;;;;;;6.43;4.68;;;2.10;99.90;;;;;;4932331;29;20120;-79
2023/02/22 04:38:03;;;;;;;5.70;5.25;;;2.10;99.90;;;;;;4937452;28;20436;-80
2023/02/22 04:40:31;;;;;;;5.10;4.50;;;2.10;99.90;;;;;;4936069;28;20510;-79
2023/02/22 04:42:59;;;;;;;4.35;3.95;;;2.00;99.90;;;;;;4942612;29;20078;-79
2023/02/22 04:45:27;;;;;;;5.03;3.53;;;1.90;99.90;;;;;;4952923;28;20050;-79
2023/02/22 04:47:54;;;;;;;6.63;5.00;;;1.90;99.90;;;;;;4938069;28;20043;-79
2023/02/22 04:50:22;;;;;;;6.60;5.13;;;1.80;99.90;;;;;;4920620;28;20055;-79
2023/02/22 04:52:50;;;;;;;6.07;5.00;;;1.90;99.90;;;;;;4934225;29;20051;-79
2023/02/22 04:55:18;;;;;;;10.52;6.97;;;1.90;99.90;;;;;;4919599;28;20051;-79
2023/02/22 04:57:46;;;;;;;6.93;4.25;;;2.10;99.90;;;;;;4938972;28;20050;-79
2023/02/22 05:00:20;;;;;;;4.65;4.18;;;2.20;99.90;;;;;;4936883;28;20063;-80
2023/02/22 05:02:49;;;;;;;5.00;4.13;;;2.30;99.90;;;;;;4936015;29;20043;-79
2023/02/22 05:05:20;;;;;;;5.50;4.28;;;2.30;99.90;;;;;;4935874;28;20049;-79
2023/02/22 05:07:48;;;;;;;6.78;4.07;;;2.10;99.90;;;;;;4957113;28;20254;-79
2023/02/22 05:10:16;;;;;;;7.53;6.72;;;1.70;99.90;;;;;;4950792;28;20047;-79
2023/02/22 05:12:44;;;;;;;4.47;4.05;;;1.50;99.90;;;;;;4953076;28;20055;-79
2023/02/22 05:15:19;;;;;;;5.18;4.55;;;1.40;99.90;;;;;;4920807;28;20066;-79
2023/02/22 05:17:47;;;;;;;6.82;5.28;;;1.40;99.90;;;;;;4937473;28;20047;-79
2023/02/22 05:20:26;;;;;;;5.22;4.78;;;1.50;99.90;;;;;;4951963;28;20043;-79
2023/02/22 05:22:59;;;;;;;12.27;5.18;;;1.60;99.90;;;;;;4952180;28;20054;-79
2023/02/22 05:25:27;;;;;;;4.07;3.78;;;1.60;99.90;;;;;;4944673;28;20046;-79
2023/02/22 05:28:09;;;;;;;5.38;3.50;;;1.60;99.90;;;;;;4933474;29;20049;-79
2023/02/22 05:30:40;;;;;;;4.97;4.47;;;1.40;99.90;;;;;;4952699;28;20047;-79
2023/02/22 05:33:09;;;;;;;5.15;4.65;;;1.40;99.90;;;;;;4955628;28;20043;-79
2023/02/22 05:35:36;;;;;;;4.95;4.55;;;1.20;99.90;;;;;;4926072;29;20048;-79
2023/02/22 05:38:05;;;;;;;5.97;5.45;;;1.20;99.90;;;;;;4948553;28;20048;-79
2023/02/22 05:40:33;;;;;;;5.63;5.20;;;1.20;99.90;;;;;;4950213;28;20055;-79
2023/02/22 05:43:01;;;;;;;4.60;4.07;;;1.30;99.90;;;;;;4954060;28;20043;-79
2023/02/22 05:45:29;;;;;;;6.47;4.75;;;1.30;99.90;;;;;;4955716;28;20050;-79
2023/02/22 05:48:01;;;;;;;4.63;4.23;;;1.30;99.90;;;;;;4946291;28;20055;-79
2023/02/22 05:55:01;;;;;;;11.57;4.75;;;1.30;99.90;;;;;;4905311;29;20063;-79
2023/02/22 05:57:28;;;;;;;6.38;4.80;;;1.30;99.90;;;;;;4898720;29;20036;-79
2023/02/22 05:59:56;;;;;;;6.03;5.10;;;1.30;99.90;;;;;;4914853;29;20087;-79
2023/02/22 06:02:24;;;;;;;6.63;3.60;;;1.30;99.90;;;;;;4881086;29;20422;-79
2023/02/22 06:04:52;;;;;;;4.25;3.70;;;1.20;99.90;;;;;;4907398;29;20044;-79
2023/02/22 06:07:20;;;;;;;6.68;6.00;;;1.20;99.90;;;;;;4914533;29;20052;-79
2023/02/22 06:09:47;;;;;;;5.40;4.20;;;1.20;99.90;;;;;;4902184;29;20473;-79
2023/02/22 06:12:15;;;;;;;6.72;4.15;;;1.20;99.90;;;;;;4902618;29;20048;-79
2023/02/22 06:14:46;;;;;;;5.35;4.03;;;1.30;99.90;;;;;;4902162;29;20063;-79
2023/02/22 06:17:14;;;;;;;6.30;4.70;;;1.40;99.90;;;;;;4902183;29;20036;-79
2023/02/22 06:19:42;;;;;;;8.13;5.55;;;1.50;99.90;;;;;;4917894;29;20650;-79
2023/02/22 06:22:17;;;;;;;4.57;3.92;;;1.60;99.90;;;;;;4917679;29;20044;-79
2023/02/22 06:24:45;;;;;;;3.50;3.20;;;1.50;99.90;;;;;;4901401;29;20406;-79
2023/02/22 06:27:13;;;;;;;11.77;4.53;;;1.10;99.90;;;;;;4938001;29;20408;-79
2023/02/22 06:29:45;;;;;;;5.78;5.13;;;0.90;99.90;;;;;;4957330;29;20039;-79
2023/02/22 06:32:13;;;;;;;4.93;3.70;;;0.90;99.90;;;;;;4958067;29;20454;-79
2023/02/22 06:34:41;;;;;;;6.32;3.83;;;0.90;99.90;;;;;;4954535;28;20074;-79
2023/02/22 06:37:09;;;;;;;4.35;3.95;;;0.90;99.90;;;;;;4957398;29;20399;-79
2023/02/22 06:39:37;;;;;;;5.78;4.57;;;1.00;99.90;;;;;;4940106;29;20411;-79
2023/02/22 06:42:05;;;;;;;9.07;5.55;;;1.10;99.90;;;;;;4954608;28;20058;-79
2023/02/22 06:44:32;;;;;;;6.78;3.92;;;1.30;99.90;;;;;;4955508;29;20401;-79
2023/02/22 06:47:00;;;;;;;7.78;4.60;;;1.50;99.90;;;;;;4957659;29;20036;-79
2023/02/22 06:49:28;;;;;;;5.53;4.88;;;1.70;99.90;;;;;;4955807;28;20050;-79
2023/02/22 06:51:55;;;;;;;8.88;5.22;;;1.90;99.90;;;;;;4957111;29;20047;-79
2023/02/22 06:54:23;;;;;;;5.05;4.65;;;1.90;99.90;;;;;;4955790;29;20416;-79
2023/02/22 06:56:51;;;;;;;6.35;4.63;;;1.80;99.90;;;;;;4956597;28;20500;-79
2023/02/22 06:59:19;;;;;;;6.72;6.05;;;1.80;99.90;;;;;;4972226;28;20047;-80
2023/02/22 07:01:47;;;;;;;6.05;4.85;;;1.80;99.90;;;;;;4977339;28;20038;-79
2023/02/22 07:04:15;;;;;;;5.50;4.10;;;1.80;99.90;;;;;;4979795;28;20057;-80
2023/02/22 07:06:49;;;;;;;6.93;5.88;;;1.80;99.90;;;;;;4976583;28;20042;-79
2023/02/22 07:09:17;;;;;;;4.93;4.53;;;1.70;99.90;;;;;;4965837;28;20055;-79
2023/02/22 07:11:45;;;;;;;4.85;4.35;;;1.70;99.90;;;;;;4980594;28;20047;-79
2023/02/22 07:14:15;;;;;;;4.95;4.50;;;1.80;99.90;;;;;;4961124;28;20053;-80
2023/02/22 07:16:42;;;;;;;4.50;4.10;;;2.10;99.90;;;;;;4965768;28;20039;-80
2023/02/22 07:19:10;;;;;;;5.38;4.05;;;2.20;99.90;;;;;;4983056;28;20035;-79
2023/02/22 07:21:38;;;;;;;5.18;4.38;;;2.40;99.90;;;;;;4980794;28;20284;-80
2023/02/22 07:24:06;;;;;;;5.28;4.82;;;2.50;99.90;;;;;;4973727;28;20066;-80
2023/02/22 07:26:41;;;;;;;6.28;3.78;;;2.60;99.90;;;;;;4976721;28;20046;-80
2023/02/22 07:29:10;;;;;;;4.43;3.97;;;2.70;99.90;;;;;;4977000;28;20046;-80
2023/02/22 07:31:38;;;;;;;4.53;3.75;;;2.80;99.90;;;;;;4977637;28;20045;-79
2023/02/22 07:34:06;;;;;;;4.60;4.18;;;2.90;99.90;;;;;;4974903;28;20035;-80
2023/02/22 07:36:36;;;;;;;6.50;5.25;;;3.00;99.90;;;;;;4976021;28;20314;-80
2023/02/22 07:39:07;;;;;;;8.88;5.35;;;3.20;99.90;;;;;;4980272;28;20046;-80
2023/02/22 07:41:35;;;;;;;;;;;3.40;99.90;;;;;;4977210;28;20116;-80
2023/02/22 07:44:14;;;;;;;5.65;4.07;;;3.60;99.90;;;;;;4983201;28;19910;-80
2023/02/22 07:46:46;;;;;;;10.30;4.57;;;3.90;99.90;;;;;;4961479;28;20043;-80
2023/02/22 07:49:14;;;;;;;4.18;3.78;;;4.00;99.90;;;;;;4978278;28;20053;-80
2023/02/22 07:51:41;;;;;;;4.80;3.88;;;4.20;99.90;;;;;;4975727;28;20047;-80
2023/02/22 07:54:09;;;;;;;6.00;4.10;;;4.30;99.90;;;;;;4975842;28;20045;-80
2023/02/22 07:56:36;;;;;;;5.32;4.00;;;4.50;99.90;;;;;;4982015;28;20047;-80
2023/02/22 07:59:04;;;;;;;3.65;3.33;;;4.60;99.90;;;;;;4982731;28;20051;-82
2023/02/22 08:01:32;;;;;;;4.95;4.45;;;4.70;99.90;;;;;;4978142;28;20035;-81
2023/02/22 08:03:59;;;;;;;4.22;3.88;;;4.80;99.90;;;;;;4979066;28;20049;-80
2023/02/22 08:06:28;;;;;;;6.72;5.15;;;4.90;99.90;;;;;;4965323;28;20039;-80
2023/02/22 08:08:57;;;;;;;6.60;4.13;;;5.00;99.90;;;;;;4977722;28;20038;-81
2023/02/22 08:11:25;;;;;;;4.43;4.07;;;5.20;99.90;;;;;;4963265;28;20059;-83
2023/02/22 08:13:53;;;;;;;8.40;3.58;;;5.30;99.90;;;;;;4964224;28;20035;-82
2023/02/22 08:16:21;;;;;;;4.80;3.90;;;5.50;99.90;;;;;;4961505;28;20062;-81
2023/02/22 08:18:48;;;;;;;6.70;3.97;;;5.50;99.90;;;;;;4936751;28;20552;-82
2023/02/22 08:21:16;;;;;;;3.78;3.42;;;5.60;99.90;;;;;;4951306;28;20571;-81
2023/02/22 08:23:51;;;;;;;3.83;3.38;;;5.70;99.90;;;;;;4949035;28;20044;-81
2023/02/22 08:26:19;;;;;;;2.40;2.30;;;5.90;99.90;;;;;;4955958;28;20578;-82
2023/02/22 08:28:48;;;;;;;3.53;3.22;;;6.10;99.90;;;;;;4953339;28;20535;-81
2023/02/22 08:31:15;;;;;;;4.53;3.65;;;6.20;99.90;;;;;;4935589;28;20059;-82
2023/02/22 08:33:47;;;;;;;4.30;2.72;;;6.30;99.90;;;;;;4952789;28;20900;-82
2023/02/22 08:36:17;;;;;;;5.15;2.72;;;6.40;99.90;;;;;;4942979;29;20623;-82
2023/02/22 08:38:45;;;;;;;4.15;3.63;;;6.60;99.90;;;;;;4944327;29;20531;-81
2023/02/22 08:41:13;;;;;;;5.50;3.35;;;6.80;99.90;;;;;;4945485;28;20508;-82
2023/02/22 08:43:41;;;;;;;4.43;2.80;;;6.90;99.90;;;;;;4929161;29;20666;-82
2023/02/22 08:46:09;;;;;;;4.50;2.72;;;6.90;99.90;;;;;;4945107;29;20679;-82
2023/02/22 08:48:37;;;;;;;5.35;2.85;;;7.00;99.90;;;;;;4943338;29;20535;-83
2023/02/22 08:51:05;;;;;;;3.08;2.70;;;7.20;99.90;;;;;;4947090;29;20058;-82
2023/02/22 08:53:33;;;;;;;5.38;3.35;;;7.40;99.90;;;;;;4928981;29;20424;-83
2023/02/22 08:56:01;;;;;;;3.95;2.22;;;7.60;99.90;;;;;;4945569;29;20051;-82
2023/02/22 08:58:28;;;;;;;2.88;2.53;;;7.90;99.90;;;;;;4914484;29;20059;-82
2023/02/22 09:00:56;;;;;;;4.45;2.88;;;8.00;99.90;;;;;;4945502;29;20420;-82
2023/02/22 09:03:24;;;;;;;4.05;3.75;;;8.20;99.90;;;;;;4946640;29;20511;-82
2023/02/22 09:05:52;;;;;;;4.35;3.13;;;8.30;99.90;;;;;;4942636;28;20416;-84
2023/02/22 09:08:20;;;;;;;6.13;3.17;;;8.30;99.90;;;;;;4947729;28;20052;-82
2023/02/22 09:10:49;;;;;;;2.83;2.55;;;8.50;99.90;;;;;;4948406;28;20066;-82
2023/02/22 09:13:16;;;;;;;4.07;3.70;;;8.50;99.90;;;;;;4952128;28;20059;-83
2023/02/22 09:15:44;;;;;;;4.43;3.15;;;8.50;99.90;;;;;;4945801;29;20051;-80
2023/02/22 09:18:13;;;;;;;7.65;3.67;;;8.80;99.90;;;;;;4945062;29;20070;-81
2023/02/22 09:20:41;;;;;;;8.50;3.97;;;9.30;99.90;;;;;;4926822;28;20062;-80
2023/02/22 09:23:09;;;;;;;6.82;4.75;;;9.80;99.90;;;;;;4928548;29;20472;-81
2023/02/22 09:25:39;;;;;;;13.50;3.28;;;10.10;99.90;;;;;;4949285;28;20047;-81
2023/02/22 09:28:08;;;;;;;4.10;3.65;;;10.00;99.90;;;;;;4946208;29;20043;-81
2023/02/22 09:30:36;;;;;;;10.85;3.25;;;10.10;99.90;;;;;;4947912;29;20065;-81
2023/02/22 09:33:08;;;;;;;3.17;2.58;;;11.20;99.90;;;;;;4950134;28;20055;-79
2023/02/22 09:35:41;;;;;;;4.25;3.15;;;12.10;99.90;;;;;;4945364;29;20055;-81
2023/02/22 09:38:10;;;;;;;5.18;3.58;;;12.10;99.90;;;;;;4938735;28;20062;-80
2023/02/22 09:40:44;;;;;;;5.38;3.53;;;12.40;99.90;;;;;;4945891;28;20531;-80
2023/02/22 09:43:31;;;;;;;3.47;2.97;;;12.10;99.90;;;;;;4951207;28;20223;-80
2023/02/22 09:46:35;;;;;;;3.83;3.47;;;11.40;99.90;;;;;;4952387;28;20592;-80
2023/02/22 09:49:18;;;;;;;3.97;3.05;;;11.70;99.90;;;;;;4952115;28;20507;-82
2023/02/22 09:51:48;;;;;;;4.80;2.97;;;11.80;99.90;;;;;;4957740;28;20452;-80
2023/02/22 09:54:28;;;;;;;5.53;3.53;;;11.10;99.90;;;;;;4940907;28;20047;-80
2023/02/22 09:56:59;;;;;;;3.67;2.90;;;10.60;99.90;;;;;;4937193;28;20043;-81
2023/02/22 09:59:33;;;;;;;4.15;3.45;;;10.60;99.90;;;;;;4957863;28;20495;-81
2023/02/22 10:02:27;;;;;;;6.43;4.30;;;10.70;99.90;;;;;;4955634;28;20051;-81
2023/02/22 10:05:13;;;;;;;10.27;3.22;;;10.70;99.90;;;;;;4947191;28;20682;-81
2023/02/22 10:07:50;;;;;;;8.95;4.18;;;10.60;99.90;;;;;;4932164;29;20050;-82
2023/02/22 10:10:20;;;;;;;6.45;2.92;;;10.60;99.90;;;;;;4952510;28;20051;-81
2023/02/22 10:12:53;;;;;;;3.05;2.85;;;10.70;99.90;;;;;;4935325;28;20073;-79
2023/02/22 10:15:27;;;;;;;4.75;3.65;;;10.80;99.90;;;;;;4933308;29;20419;-80
2023/02/22 10:18:19;;;;;;;4.75;3.20;;;10.80;99.90;;;;;;4930174;28;20479;-80
2023/02/22 10:21:09;;;;;;;5.40;4.20;;;10.80;99.90;;;;;;4947145;28;20412;-81
2023/02/22 10:23:56;;;;;;;4.35;3.38;;;10.80;99.90;;;;;;4945942;29;20405;-81
2023/02/22 10:26:39;;;;;;;3.17;2.78;;;10.80;99.90;;;;;;4950984;28;20069;-81
2023/02/22 10:29:20;;;;;;;6.68;2.65;;;11.00;99.90;;;;;;4953035;28;20036;-81
2023/02/22 10:31:55;;;;;;;2.53;2.05;;;11.10;99.90;;;;;;4936504;29;20352;-83
2023/02/22 10:34:55;;;;;;;2.40;1.88;;;11.30;99.90;;;;;;4929563;29;20051;-82
2023/02/22 10:37:33;;;;;;;2.20;2.10;;;11.30;99.90;;;;;;4940339;29;20419;-82
2023/02/22 10:40:16;;;;;;;2.85;2.30;;;11.60;99.70;;;;;;4948934;28;20069;-82
2023/02/22 10:42:44;;;;;;;1.63;1.52;;;11.60;99.10;;;;;;4949257;28;20530;-81
2023/02/22 10:45:25;;;;;;;2.53;2.33;;;11.70;98.30;;;;;;4953319;28;20079;-83
2023/02/22 10:47:57;;;;;;;2.20;1.70;;;11.60;99.70;;;;;;4953918;28;20043;-82
2023/02/22 10:50:30;;;;;;;6.00;2.03;;;11.70;97.30;;;;;;4947147;29;20052;-83
2023/02/22 10:52:58;;;;;;;2.55;2.35;;;11.70;98.80;;;;;;4926644;29;20047;-81
2023/02/22 10:55:26;;;;;;;2.90;2.22;;;11.80;97.70;;;;;;4947373;28;20429;-80
2023/02/22 10:58:06;;;;;;;3.00;2.58;;;11.90;99.90;;;;;;4947419;28;20047;-81
2023/02/22 11:00:37;;;;;;;2.33;2.20;;;11.80;98.60;;;;;;4952146;28;20074;-81
2023/02/22 11:03:20;;;;;;;4.35;2.17;;;11.70;99.90;;;;;;4931600;29;20424;-81
2023/02/22 11:05:49;;;;;;;3.40;2.90;;;11.80;99.90;;;;;;4941490;28;20048;-82
2023/02/22 11:08:20;;;;;;;3.22;2.63;;;11.70;99.90;;;;;;4931112;29;20094;-80
2023/02/22 11:11:12;;;;;;;4.55;2.70;;;11.50;99.90;;;;;;4947870;29;20059;-82
2023/02/22 11:13:40;;;;;;;4.53;2.17;;;11.70;99.90;;;;;;4944742;28;20416;-78
2023/02/22 11:16:30;;;;;;;4.00;2.45;;;11.80;99.50;;;;;;4929340;29;20065;-77
2023/02/22 11:19:26;;;;;;;3.95;2.35;;;11.80;99.10;;;;;;4946581;29;20439;-77
2023/02/22 11:22:08;;;;;;;1.85;1.73;;;11.80;99.20;;;;;;4944517;28;20655;-77
2023/02/22 11:24:50;;;;;;;2.85;2.13;;;11.90;97.50;;;;;;4951719;28;20367;-77
2023/02/22 11:27:32;;;;;;;2.97;2.28;;;11.80;99.10;;;;;;4935614;29;20440;-77
2023/02/22 11:30:33;;;;;;;2.75;1.90;;;12.00;98.80;;;;;;4946764;29;20059;-77
2023/02/22 11:33:25;;;;;;;2.45;2.25;;;12.10;98.20;;;;;;4941776;29;20412;-78
2023/02/22 11:35:59;;;;;;;2.50;2.30;;;12.10;99.90;;;;;;4930037;28;20058;-78
2023/02/22 11:38:30;;;;;;;2.75;2.55;;;12.30;99.80;;;;;;4943683;28;20036;-77
2023/02/22 11:41:25;;;;;;;3.33;2.78;;;12.50;98.30;;;;;;4948041;28;20601;-77
2023/02/22 11:43:53;;;;;;;3.05;2.03;;;12.60;98.90;;;;;;4947223;28;20050;-78
2023/02/22 11:46:22;;;;;;;1.63;1.52;;;12.50;97.00;;;;;;4943967;28;20592;-77
2023/02/22 11:48:52;;;;;;;2.67;2.35;;;12.50;97.90;;;;;;4948927;28;20381;-77
2023/02/22 11:51:47;;;;;;;2.13;1.90;;;12.40;99.90;;;;;;4944907;28;20412;-76
2023/02/22 11:54:36;;;;;;;2.67;2.47;;;12.70;99.70;;;;;;4940883;28;20475;-77
2023/02/22 11:57:07;;;;;;;1.55;1.45;;;12.90;99.10;;;;;;4945046;28;20344;-77
2023/02/22 11:59:44;;;;;;;2.47;2.27;;;13.00;97.50;;;;;;4942261;28;20412;-77
2023/02/22 12:02:17;;;;;;;2.13;1.80;;;13.10;98.00;;;;;;4950595;28;20504;-77
2023/02/22 12:05:10;;;;;;;3.97;2.00;;;13.10;99.10;;;;;;4950661;28;20059;-77
2023/02/22 12:08:05;;;;;;;2.88;2.65;;;13.30;99.00;;;;;;4942404;29;20050;-77
2023/02/22 12:11:09;;;;;;;2.88;2.63;;;13.40;97.50;;;;;;4947745;28;20062;-77
2023/02/22 12:14:08;;;;;;;4.00;2.75;;;13.20;97.70;;;;;;4941302;28;20043;-77
2023/02/22 12:16:53;;;;;;;2.35;1.77;;;13.30;97.60;;;;;;4946822;28;20051;-77
2023/02/22 12:19:32;;;;;;;2.53;2.33;;;13.30;98.10;;;;;;4948546;28;20621;-77
2023/02/22 12:22:06;;;;;;;2.80;2.60;;;13.30;97.50;;;;;;4952275;28;20051;-77
2023/02/22 12:25:01;;;;;;;2.95;1.85;;;13.20;99.10;;;;;;4900523;29;20047;-77
2023/02/22 12:27:45;;;;;;;1.77;1.67;;;13.20;99.70;;;;;;4879624;29;20342;-77
2023/02/22 12:30:27;;;;;;;2.03;1.85;;;13.10;99.00;;;;;;4896542;29;20689;-78
2023/02/22 12:33:03;;;;;;;2.55;2.35;;;13.20;99.90;;;;;;4899397;29;20606;-77
2023/02/22 12:35:38;;;;;;;4.28;3.35;;;13.30;99.80;;;;;;4902905;29;20055;-77
2023/02/22 12:38:24;;;;;;;2.83;2.63;;;13.50;97.70;;;;;;4898274;29;20044;-78
2023/02/22 12:41:32;;;;;;;3.25;2.45;;;13.50;97.60;;;;;;4905073;29;20059;-78
2023/02/22 12:44:04;;;;;;;2.33;2.17;;;13.30;98.70;;;;;;4864414;29;20414;-78
2023/02/22 12:46:42;;;;;;;2.13;1.50;;;13.50;99.90;;;;;;4935226;28;20048;-77
2023/02/22 12:49:25;;;;;;;2.42;2.33;;;13.60;98.70;;;;;;4945933;29;20058;-78
2023/02/22 12:52:15;;;;;;;2.80;2.03;;;14.00;98.00;;;;;;4925907;29;20424;-78
2023/02/22 12:55:05;;;;;;;1.70;1.55;;;14.10;98.70;;;;;;4944832;29;20047;-77
2023/02/22 12:57:43;;;;;;;5.25;2.28;;;14.00;98.80;;;;;;4949973;28;20047;-77
2023/02/22 13:00:32;;;;;;;2.08;1.98;;;14.00;99.50;;;;;;4949486;28;20254;-78
2023/02/22 13:03:38;;;;;;;3.05;2.22;;;13.80;98.70;;;;;;4909558;29;20063;-78
2023/02/22 13:06:30;;;;;;;2.13;1.92;;;13.90;99.20;;;;;;4941868;28;20066;-77
2023/02/22 13:12:00;;;;;;;2.90;1.88;;;14.10;99.70;;;;;;5090853;28;20418;-38
2023/02/22 13:14:28;;;;;;;6.85;2.22;;;14.10;99.90;;;;;;5026305;28;20060;-37
2023/02/22 13:17:02;;;;;;;4.07;2.63;;;14.30;99.80;;;;;;5011780;28;20041;-37
2023/02/22 13:20:05;;;;;;;3.10;1.80;;;14.40;99.90;;;;;;5010102;28;20084;-37
2023/02/22 13:22:50;;;;;;;1.83;1.73;;;14.30;99.90;;;;;;5005313;28;20054;-37
2023/02/22 13:25:43;;;;;;;2.58;2.38;;;14.10;99.90;;;;;;5017988;28;20052;-37
2023/02/22 13:28:29;;;;;;;7.70;3.25;;;13.90;99.90;;;;;;5024599;28;20050;-37
2023/02/22 13:31:20;;;;;;;2.50;2.20;;;13.80;99.90;;;;;;5030308;28;20463;-38
2023/02/22 13:33:57;;;;;;;3.63;2.60;;;13.60;99.90;;;;;;5027248;28;20050;-37
2023/02/22 13:36:41;;;;;;;2.78;2.30;;;13.60;99.90;;;;;;5033161;28;20068;-37
2023/02/22 13:39:11;;;;;;;2.85;2.13;;;13.50;99.90;;;;;;5029579;28;20056;-38